Mekoryuk Airport Mekoryuk US
ICAO: PAMY
IATA:
Category: Medium
Scheduled Services:

Elevation: 48 ft
TransAlt. 18000 ft.

Airport Communications:
AWOS 3:123.9
ANCHORAGE CNTR:124.5
CTAF:122.9
KENAI RDO:122
TWEB:32.3

PAMY Zoom In..

If you have problems with the map follow the link
https://www.worldairports.se/pages/airport.php?
ICAO=PAMY

Runways:

(A) RW 05 length 3070 ft width 75 ft
---- / hdg 54

(B) RW 23 length 3070 ft width 75 ft
---- / hdg 234

Location; PAMY
Day. 16 / Time. 02.56 Zulu
* Altimeter: 29.39
* Temperature: -02° c. -28.4°f.
* Wind from: 050° Speed 12 kn.
Dewpoint: -03° c.
Visibility: 9 Statute Miles.
Clouds: Scattered 2400 ft.
Clouds: Broken 2800 ft.
Clouds: Overcast 7000 ft.
Conditions: Light Snow.

PAMY 160256Z AUTO 05012KT 9SM -SN SCT024 BKN028 OVC070 M02/M03 A2939 RMK AO2 SLP953 P0000 60000 T10171033 50003 FZRANO


Wind From 050°
Speed 12 kn.

 
 
jpsmedia worldairports.se 2019   terms of use